Etusivu
METAR-TAF:

METAR-TAF

Lentoasemat :

Delta, Utah, Yhdysvallat

Leveyspiiri: 39-22-50N, Pituuspiiri: 112-30-28W, korkeus merenpinnasta: 1451 m

Tämänhetkinen sää

Tämä raportti tehtiin 22 tuntia ja 39 minuuttia sitten, kello 03.30 UTC
Tuuli 11 kn pohjoisen/luoteesta puuskistuen 19 kn:hen
Lämpötila 17°C
Kosteus 32%
Ilmanpaine 1012 hPa
Näkyvyys: 16.1 km
Hajanaisia pilviä 10000 ft:n korkeudessa

METAR: KDTA 080330Z AUTO 34011G19KT 10SM SCT100 17/00 A2987 RMK AO1

Aika: 20:09 (02:09 UTC)


TAF: puuttuu

Säähavainnot ja -ennusteet yli 4000 lentoasemalta (METAR- ja TAF-raportit).

Käytössä olevat sääasemat on merkitty karttaan keltaisilla ja punaisilla pisteillä.

Aseta hiiri pisteen päälle nähdäksesi sääaseman nimen.

Klikkaa sitten nähdäksesi säähavainnot ja -ennusteet.

Kartan vaihtaminen: klikkaa mustalla rastilla varustettuja vihreitä pisteitä, niin voit zoomata sisään; viivalla varustettua vihreää pistettä, niin voit zoomata ulos tai vihreitä nuolia, niin pääset viereisille kartoille.


METAR-TAF: